Time;durP1;ratioP1;P1;durP2;ratioP2;P2;SDS_P1;SDS_P2;PMS_P1;PMS_P2;Temp;Humidity;BMP_temperature;BMP_pressure;BME280_temperature;BME280_humidity;BME280_pressure;Samples;Min_cycle;Max_cycle;Signal;HPM_P1;HPM_P2
2022/09/13 00:00:05;;;;;;;10.40;6.20;;;;;;;;;;5025427;28;20112;-66
2022/09/13 00:02:31;;;;;;;10.38;6.18;;;;;;;;;;5022698;28;20083;-66
2022/09/13 00:04:57;;;;;;;9.73;6.38;;;;;;;;;;5023459;28;20422;-66
2022/09/13 00:07:22;;;;;;;9.13;6.40;;;;;;;;;;5025177;28;20064;-66
2022/09/13 00:09:48;;;;;;;6.95;5.90;;;;;;;;;;5023659;28;20029;-66
2022/09/13 00:12:14;;;;;;;8.63;6.75;;;;;;;;;;5023877;28;20029;-66
2022/09/13 00:14:40;;;;;;;8.20;6.15;;;;;;;;;;5024873;28;20061;-66
2022/09/13 00:17:05;;;;;;;10.65;6.43;;;;;;;;;;5022866;28;20060;-66
2022/09/13 00:19:31;;;;;;;7.57;6.00;;;;;;;;;;5024031;28;20026;-66
2022/09/13 00:21:57;;;;;;;11.20;6.68;;;;;;;;;;5024298;28;20022;-66
2022/09/13 00:24:22;;;;;;;10.13;6.20;;;;;;;;;;5022557;28;20021;-66
2022/09/13 00:26:48;;;;;;;9.02;6.28;;;;;;;;;;5027155;28;20347;-66
2022/09/13 00:29:13;;;;;;;7.13;6.15;;;;;;;;;;5023871;28;20105;-66
2022/09/13 00:31:39;;;;;;;9.60;6.25;;;;;;;;;;5022912;28;20037;-66
2022/09/13 00:34:04;;;;;;;8.35;6.05;;;;;;;;;;5024539;28;20033;-66
2022/09/13 00:36:30;;;;;;;7.85;6.00;;;;;;;;;;5023163;28;20060;-66
2022/09/13 00:38:55;;;;;;;8.20;5.57;;;;;;;;;;5023453;28;20467;-67
2022/09/13 00:41:22;;;;;;;8.65;6.07;;;;;;;;;;5024730;28;20064;-66
2022/09/13 00:43:51;;;;;;;8.30;5.97;;;;;;;;;;5022875;28;20049;-66
2022/09/13 00:46:20;;;;;;;7.75;5.60;;;;;;;;;;5022920;28;20022;-66
2022/09/13 00:48:46;;;;;;;8.50;5.65;;;;;;;;;;5024215;28;20033;-68
2022/09/13 00:51:13;;;;;;;9.10;5.75;;;;;;;;;;5023349;28;20026;-66
2022/09/13 00:53:42;;;;;;;11.30;6.07;;;;;;;;;;5022765;28;20130;-67
2022/09/13 00:56:23;;;;;;;9.20;6.03;;;;;;;;;;5024234;28;20017;-66
2022/09/13 00:58:58;;;;;;;9.18;6.13;;;;;;;;;;5023795;28;20348;-66
2022/09/13 01:01:30;;;;;;;7.75;5.43;;;;;;;;;;5024102;28;20426;-67
2022/09/13 01:03:55;;;;;;;9.85;5.70;;;;;;;;;;5023553;28;20375;-66
2022/09/13 01:06:31;;;;;;;7.95;5.88;;;;;;;;;;5022056;28;20038;-67
2022/09/13 01:09:03;;;;;;;7.90;5.50;;;;;;;;;;5022714;28;20431;-66
2022/09/13 01:11:49;;;;;;;11.05;5.90;;;;;;;;;;5023946;28;20039;-66
2022/09/13 01:14:19;;;;;;;7.55;5.40;;;;;;;;;;5023403;28;20533;-66
2022/09/13 01:16:45;;;;;;;7.13;5.28;;;;;;;;;;5021629;28;20036;-66
2022/09/13 01:19:11;;;;;;;7.10;5.00;;;;;;;;;;5023458;28;20028;-67
2022/09/13 01:21:58;;;;;;;7.63;5.38;;;;;;;;;;5023305;28;20022;-66
2022/09/13 01:24:55;;;;;;;7.65;5.55;;;;;;;;;;5023912;28;20101;-66
2022/09/13 01:27:51;;;;;;;7.57;5.47;;;;;;;;;;5025186;28;20580;-66
2022/09/13 01:30:20;;;;;;;7.18;5.22;;;;;;;;;;5023176;28;20108;-66
2022/09/13 01:33:24;;;;;;;6.45;5.22;;;;;;;;;;5021471;28;20522;-67
2022/09/13 01:36:10;;;;;;;7.65;5.18;;;;;;;;;;5021447;28;20022;-66
2022/09/13 01:39:01;;;;;;;6.75;4.95;;;;;;;;;;5023156;28;20088;-66
2022/09/13 01:41:59;;;;;;;6.28;4.78;;;;;;;;;;5021886;28;20514;-66
2022/09/13 01:44:45;;;;;;;6.68;4.80;;;;;;;;;;4981799;28;20129;-66
2022/09/13 01:47:19;;;;;;;5.43;4.10;;;;;;;;;;4981438;28;20069;-66
2022/09/13 01:50:22;;;;;;;5.55;4.90;;;;;;;;;;4982173;28;20202;-66
2022/09/13 01:53:02;;;;;;;7.35;4.30;;;;;;;;;;4980212;28;20169;-66
2022/09/13 01:56:17;;;;;;;8.70;5.15;;;;;;;;;;4980285;28;20558;-66
2022/09/13 01:59:09;;;;;;;5.97;4.60;;;;;;;;;;4967871;28;20130;-70
2022/09/13 02:01:43;;;;;;;5.65;4.63;;;;;;;;;;4980920;28;20085;-66
2022/09/13 02:04:16;;;;;;;7.10;4.72;;;;;;;;;;4980484;28;20102;-66
2022/09/13 02:06:46;;;;;;;6.70;4.43;;;;;;;;;;4979716;28;20026;-66
2022/09/13 02:09:19;;;;;;;5.63;4.32;;;;;;;;;;4981337;28;20121;-67
2022/09/13 02:11:49;;;;;;;5.72;4.50;;;;;;;;;;4981865;28;20058;-66
2022/09/13 02:14:23;;;;;;;;;;;;;;;;;;4981381;28;20034;-66
2022/09/13 02:16:55;;;;;;;6.00;4.50;;;;;;;;;;4961597;28;20016;-66
2022/09/13 02:19:28;;;;;;;7.18;4.80;;;;;;;;;;4980241;28;20085;-66
2022/09/13 02:21:59;;;;;;;7.22;4.47;;;;;;;;;;5014829;28;20041;-66
2022/09/13 02:24:44;;;;;;;6.22;3.67;;;;;;;;;;5021037;28;20463;-66
2022/09/13 02:27:13;;;;;;;9.23;4.97;;;;;;;;;;5024220;28;20018;-66
2022/09/13 02:29:44;;;;;;;6.30;4.30;;;;;;;;;;5021333;28;20030;-66
2022/09/13 02:32:12;;;;;;;7.07;4.07;;;;;;;;;;5023492;28;20033;-66
2022/09/13 02:34:42;;;;;;;8.93;4.63;;;;;;;;;;5021425;28;20112;-65
2022/09/13 02:37:09;;;;;;;5.18;3.75;;;;;;;;;;5022937;28;20108;-67
2022/09/13 02:39:39;;;;;;;7.22;4.70;;;;;;;;;;5022863;28;20045;-66
2022/09/13 02:42:18;;;;;;;5.50;4.45;;;;;;;;;;5022882;28;20060;-66
2022/09/13 02:44:48;;;;;;;7.07;4.72;;;;;;;;;;5022705;28;20442;-66
2022/09/13 02:47:31;;;;;;;5.90;4.60;;;;;;;;;;5025390;28;20033;-66
2022/09/13 02:50:18;;;;;;;6.55;4.82;;;;;;;;;;5026176;28;20014;-66
2022/09/13 02:53:04;;;;;;;5.80;4.30;;;;;;;;;;5026571;28;20489;-65
2022/09/13 02:55:42;;;;;;;8.00;4.78;;;;;;;;;;5024979;28;20055;-67
2022/09/13 02:58:31;;;;;;;8.10;4.70;;;;;;;;;;5024229;28;20096;-67
2022/09/13 03:00:56;;;;;;;19.80;12.68;;;;;;;;;;5025694;28;20018;-66
2022/09/13 03:03:23;;;;;;;6.97;4.68;;;;;;;;;;5024421;28;20029;-70
2022/09/13 03:05:48;;;;;;;8.02;4.93;;;;;;;;;;5026385;28;20028;-67
2022/09/13 03:08:16;;;;;;;5.43;3.90;;;;;;;;;;5024190;28;20021;-68
2022/09/13 03:11:06;;;;;;;8.20;5.05;;;;;;;;;;5024440;28;20124;-66
2022/09/13 03:13:32;;;;;;;5.47;4.45;;;;;;;;;;5024736;28;20419;-66
2022/09/13 03:16:28;;;;;;;6.82;4.78;;;;;;;;;;5024795;28;20029;-66
2022/09/13 03:19:27;;;;;;;9.05;4.18;;;;;;;;;;5023537;28;20033;-66
2022/09/13 03:21:56;;;;;;;5.78;4.43;;;;;;;;;;5023645;28;20032;-68
2022/09/13 03:24:50;;;;;;;5.13;3.92;;;;;;;;;;5026082;28;20076;-66
2022/09/13 03:27:39;;;;;;;5.25;4.28;;;;;;;;;;4963907;28;20493;-65
2022/09/13 03:30:07;;;;;;;5.43;3.92;;;;;;;;;;4964770;28;20027;-66
2022/09/13 03:32:39;;;;;;;7.25;4.90;;;;;;;;;;4963876;28;20075;-66
2022/09/13 03:35:28;;;;;;;6.30;4.65;;;;;;;;;;4963045;28;20028;-67
2022/09/13 03:38:04;;;;;;;6.05;4.55;;;;;;;;;;4963884;28;20027;-66
2022/09/13 03:41:04;;;;;;;6.35;4.57;;;;;;;;;;4963341;28;20061;-66
2022/09/13 03:43:41;;;;;;;6.85;4.35;;;;;;;;;;4964783;28;20030;-65
2022/09/13 03:46:11;;;;;;;8.02;4.22;;;;;;;;;;4964930;28;20022;-66
2022/09/13 03:48:39;;;;;;;7.18;4.47;;;;;;;;;;4964166;28;20469;-66
2022/09/13 03:51:05;;;;;;;5.95;4.78;;;;;;;;;;4962658;28;20038;-66
2022/09/13 03:53:34;;;;;;;7.65;4.93;;;;;;;;;;4964376;28;20031;-66
2022/09/13 03:56:00;;;;;;;7.45;4.97;;;;;;;;;;4964299;28;20090;-66
2022/09/13 03:58:25;;;;;;;8.00;4.55;;;;;;;;;;4961538;28;20035;-66
2022/09/13 04:00:53;;;;;;;9.15;5.15;;;;;;;;;;4964247;28;20034;-69
2022/09/13 04:03:19;;;;;;;8.43;5.43;;;;;;;;;;4974673;28;20501;-66
2022/09/13 04:05:45;;;;;;;5.88;4.50;;;;;;;;;;5025259;28;20026;-66
2022/09/13 04:08:11;;;;;;;6.15;4.85;;;;;;;;;;5023765;28;20026;-66
2022/09/13 04:10:37;;;;;;;7.15;5.45;;;;;;;;;;5023640;28;20052;-66
2022/09/13 04:13:03;;;;;;;6.45;4.93;;;;;;;;;;5025189;28;20648;-66
2022/09/13 04:15:32;;;;;;;6.82;4.90;;;;;;;;;;5023120;28;20148;-66
2022/09/13 04:17:57;;;;;;;5.55;4.55;;;;;;;;;;5024010;28;20083;-66
2022/09/13 04:20:24;;;;;;;6.00;3.95;;;;;;;;;;5025122;28;20033;-67
2022/09/13 04:22:54;;;;;;;7.28;4.78;;;;;;;;;;5023118;28;20030;-66
2022/09/13 04:25:21;;;;;;;6.18;4.30;;;;;;;;;;5023735;28;20022;-66
2022/09/13 04:27:47;;;;;;;6.88;4.70;;;;;;;;;;5025255;28;20022;-66
2022/09/13 04:30:13;;;;;;;6.70;4.50;;;;;;;;;;5023946;28;20513;-67
2022/09/13 04:32:42;;;;;;;5.63;4.30;;;;;;;;;;5024180;28;20058;-66
2022/09/13 04:35:08;;;;;;;7.90;4.70;;;;;;;;;;5022723;28;20029;-67
2022/09/13 04:37:33;;;;;;;7.15;4.22;;;;;;;;;;5024049;28;20030;-66
2022/09/13 04:39:59;;;;;;;7.32;4.40;;;;;;;;;;5024485;28;20041;-66
2022/09/13 04:42:24;;;;;;;5.30;3.90;;;;;;;;;;5022558;28;20025;-68
2022/09/13 04:44:50;;;;;;;7.43;3.90;;;;;;;;;;5024293;28;20028;-66
2022/09/13 04:47:15;;;;;;;7.75;4.00;;;;;;;;;;5023551;28;20375;-67
2022/09/13 04:49:41;;;;;;;6.30;4.20;;;;;;;;;;5022862;28;20029;-66
2022/09/13 04:52:07;;;;;;;6.38;3.78;;;;;;;;;;5024141;28;20028;-66
2022/09/13 04:54:33;;;;;;;4.35;3.20;;;;;;;;;;5022591;28;20033;-66
2022/09/13 04:56:58;;;;;;;6.00;3.67;;;;;;;;;;5023109;28;20014;-66
2022/09/13 04:59:24;;;;;;;7.05;3.97;;;;;;;;;;5024173;28;20399;-67
2022/09/13 05:01:49;;;;;;;6.65;4.18;;;;;;;;;;5022279;28;20028;-66
2022/09/13 05:04:15;;;;;;;5.20;3.65;;;;;;;;;;5023389;28;20026;-67
2022/09/13 05:06:41;;;;;;;4.60;3.83;;;;;;;;;;5023800;28;20022;-66
2022/09/13 05:09:06;;;;;;;5.75;3.72;;;;;;;;;;5021775;28;20467;-67
2022/09/13 05:11:32;;;;;;;5.47;3.90;;;;;;;;;;5023638;28;20069;-67
2022/09/13 05:13:59;;;;;;;5.30;3.70;;;;;;;;;;5023247;28;20025;-66
2022/09/13 05:16:28;;;;;;;4.85;3.63;;;;;;;;;;5021824;28;20022;-67
2022/09/13 05:18:54;;;;;;;5.53;4.03;;;;;;;;;;5023188;28;20030;-66
2022/09/13 05:21:20;;;;;;;5.75;4.22;;;;;;;;;;5023425;28;20013;-66
2022/09/13 05:23:50;;;;;;;5.75;4.50;;;;;;;;;;5021465;28;20072;-66
2022/09/13 05:26:16;;;;;;;10.93;4.82;;;;;;;;;;5025381;28;20022;-67
2022/09/13 05:28:45;;;;;;;6.07;4.07;;;;;;;;;;5023465;28;20340;-66
2022/09/13 05:31:19;;;;;;;7.13;4.35;;;;;;;;;;5021917;28;20036;-66
2022/09/13 05:33:47;;;;;;;6.38;4.53;;;;;;;;;;5021662;28;20032;-68
2022/09/13 05:36:13;;;;;;;8.98;4.53;;;;;;;;;;5023054;28;20562;-66
2022/09/13 05:38:39;;;;;;;7.13;4.63;;;;;;;;;;5023113;28;20068;-66
2022/09/13 05:41:05;;;;;;;6.57;4.53;;;;;;;;;;5021287;28;20069;-66
2022/09/13 05:43:33;;;;;;;6.22;4.65;;;;;;;;;;5023187;28;20028;-66
2022/09/13 05:46:02;;;;;;;6.80;4.43;;;;;;;;;;5022822;28;20065;-66
2022/09/13 05:48:28;;;;;;;4.72;4.10;;;;;;;;;;5021179;28;20029;-66
2022/09/13 05:50:54;;;;;;;4.80;4.20;;;;;;;;;;5022556;28;20446;-67
2022/09/13 05:53:19;;;;;;;6.88;4.90;;;;;;;;;;5022660;28;20026;-68
2022/09/13 05:55:45;;;;;;;6.00;5.20;;;;;;;;;;5021119;28;20348;-67
2022/09/13 05:58:10;;;;;;;10.65;4.95;;;;;;;;;;5022822;28;20044;-66
2022/09/13 06:00:36;;;;;;;6.40;4.47;;;;;;;;;;5022229;28;20049;-66
2022/09/13 06:03:02;;;;;;;7.97;4.97;;;;;;;;;;5021529;28;20111;-67
2022/09/13 06:05:28;;;;;;;8.85;4.60;;;;;;;;;;5023175;28;20092;-69
2022/09/13 06:07:53;;;;;;;8.38;4.50;;;;;;;;;;5021863;28;20029;-67
2022/09/13 06:10:19;;;;;;;7.18;4.53;;;;;;;;;;5021750;28;20025;-67
2022/09/13 06:12:46;;;;;;;8.70;5.03;;;;;;;;;;5023143;28;20431;-67
2022/09/13 06:15:12;;;;;;;4.97;4.10;;;;;;;;;;5021445;28;20025;-67
2022/09/13 06:17:38;;;;;;;7.70;5.80;;;;;;;;;;5021945;28;20024;-66
2022/09/13 06:20:04;;;;;;;4.30;3.45;;;;;;;;;;5023030;28;20021;-66
2022/09/13 06:22:32;;;;;;;6.20;3.83;;;;;;;;;;5024921;28;20026;-67
2022/09/13 06:24:58;;;;;;;8.13;4.95;;;;;;;;;;5026057;28;20100;-66
2022/09/13 06:27:24;;;;;;;6.55;4.60;;;;;;;;;;5029870;28;20093;-66
2022/09/13 06:29:49;;;;;;;4.95;3.88;;;;;;;;;;5025169;28;20024;-66
2022/09/13 06:32:15;;;;;;;7.80;5.03;;;;;;;;;;5026278;28;20032;-67
2022/09/13 06:34:41;;;;;;;9.00;4.47;;;;;;;;;;5026210;28;20032;-67
2022/09/13 06:37:06;;;;;;;5.85;4.57;;;;;;;;;;5024478;28;20053;-67
2022/09/13 06:39:33;;;;;;;6.18;4.43;;;;;;;;;;5027002;28;20083;-67
2022/09/13 06:41:59;;;;;;;6.38;4.75;;;;;;;;;;5026096;28;20029;-67
2022/09/13 06:44:24;;;;;;;5.25;4.00;;;;;;;;;;5024539;28;20101;-66
2022/09/13 06:46:49;;;;;;;9.07;4.68;;;;;;;;;;5026401;28;20370;-67
2022/09/13 06:49:15;;;;;;;7.10;3.97;;;;;;;;;;5025443;28;20033;-67
2022/09/13 06:51:40;;;;;;;6.68;4.35;;;;;;;;;;5024825;28;20044;-66
2022/09/13 06:54:06;;;;;;;7.95;4.47;;;;;;;;;;5025293;28;20474;-67
2022/09/13 06:56:34;;;;;;;7.72;5.00;;;;;;;;;;5024813;28;20029;-66
2022/09/13 06:59:03;;;;;;;10.13;5.13;;;;;;;;;;5024689;28;20044;-66
2022/09/13 07:01:34;;;;;;;11.20;4.85;;;;;;;;;;5026469;28;20056;-66
2022/09/13 07:04:06;;;;;;;10.38;4.72;;;;;;;;;;5025669;28;20087;-67
2022/09/13 07:06:37;;;;;;;10.68;4.80;;;;;;;;;;5024462;28;20028;-67
2022/09/13 07:09:04;;;;;;;7.03;4.10;;;;;;;;;;5024532;28;20025;-67
2022/09/13 07:11:34;;;;;;;7.32;4.00;;;;;;;;;;5026035;28;20030;-67
2022/09/13 07:14:00;;;;;;;5.88;4.68;;;;;;;;;;5025824;28;20026;-66
2022/09/13 07:16:28;;;;;;;4.53;3.53;;;;;;;;;;5024057;28;20101;-67
2022/09/13 07:19:03;;;;;;;8.13;3.47;;;;;;;;;;5025373;28;20072;-67
2022/09/13 07:21:28;;;;;;;5.50;3.28;;;;;;;;;;5026212;28;20100;-67
2022/09/13 07:23:55;;;;;;;7.22;3.70;;;;;;;;;;5024746;28;20129;-66
2022/09/13 07:26:21;;;;;;;6.75;3.95;;;;;;;;;;5027122;28;20075;-67
2022/09/13 07:28:48;;;;;;;10.35;4.30;;;;;;;;;;5025863;28;20051;-67
2022/09/13 07:31:16;;;;;;;7.13;3.83;;;;;;;;;;5024527;28;20547;-67
2022/09/13 07:33:43;;;;;;;6.88;4.00;;;;;;;;;;5022860;28;20108;-66
2022/09/13 07:36:10;;;;;;;6.50;3.50;;;;;;;;;;5025802;28;20087;-67
2022/09/13 07:38:39;;;;;;;5.63;4.40;;;;;;;;;;5028706;28;20042;-66
2022/09/13 07:41:07;;;;;;;9.80;4.00;;;;;;;;;;5026294;28;20029;-66
2022/09/13 07:43:34;;;;;;;7.10;3.70;;;;;;;;;;5023967;28;20070;-66
2022/09/13 07:46:14;;;;;;;4.97;4.05;;;;;;;;;;5024164;28;20022;-67
2022/09/13 07:48:41;;;;;;;5.05;4.32;;;;;;;;;;5030108;28;20471;-66
2022/09/13 07:51:11;;;;;;;7.85;4.50;;;;;;;;;;5014924;28;20084;-66
2022/09/13 07:53:38;;;;;;;8.13;4.30;;;;;;;;;;5015010;28;20033;-67
2022/09/13 07:56:07;;;;;;;5.65;4.25;;;;;;;;;;5014939;28;20770;-68
2022/09/13 07:58:34;;;;;;;7.25;4.63;;;;;;;;;;5014699;28;20049;-67
2022/09/13 08:01:04;;;;;;;5.25;4.25;;;;;;;;;;5014741;28;20030;-67
2022/09/13 08:03:30;;;;;;;7.22;4.95;;;;;;;;;;5014719;28;20387;-67
2022/09/13 08:05:56;;;;;;;6.60;5.22;;;;;;;;;;5014815;28;20094;-66
2022/09/13 08:08:21;;;;;;;7.22;4.70;;;;;;;;;;5014841;28;20030;-67
2022/09/13 08:10:47;;;;;;;10.70;5.82;;;;;;;;;;5014362;28;20034;-68
2022/09/13 08:13:15;;;;;;;7.65;5.90;;;;;;;;;;5014553;28;20092;-66
2022/09/13 08:15:40;;;;;;;9.10;6.50;;;;;;;;;;5014501;28;20022;-66
2022/09/13 08:18:06;;;;;;;8.85;5.22;;;;;;;;;;5014339;28;20034;-67
2022/09/13 08:20:37;;;;;;;9.23;5.80;;;;;;;;;;5022521;28;20536;-66
2022/09/13 08:23:02;;;;;;;;;;;;;;;;;;5040889;28;20475;-66
2022/09/13 08:25:28;;;;;;;8.43;6.32;;;;;;;;;;5033832;28;19923;-67
2022/09/13 08:27:53;;;;;;;8.95;5.47;;;;;;;;;;5034191;28;20037;-67
2022/09/13 08:30:19;;;;;;;8.80;5.75;;;;;;;;;;5034025;28;20029;-67
2022/09/13 08:32:48;;;;;;;6.13;5.13;;;;;;;;;;5033704;28;20100;-66
2022/09/13 08:35:14;;;;;;;9.07;5.70;;;;;;;;;;5033900;28;20032;-67
2022/09/13 08:37:39;;;;;;;7.75;5.53;;;;;;;;;;5032434;28;20025;-66
2022/09/13 08:40:05;;;;;;;7.82;5.43;;;;;;;;;;5032404;28;20021;-66
2022/09/13 08:42:50;;;;;;;6.40;5.68;;;;;;;;;;5033720;28;20064;-66
2022/09/13 08:45:16;;;;;;;7.97;5.60;;;;;;;;;;5033087;28;20032;-67
2022/09/13 08:48:17;;;;;;;8.38;6.22;;;;;;;;;;5033425;28;20033;-66
2022/09/13 08:50:43;;;;;;;9.30;5.82;;;;;;;;;;5031433;28;20506;-67
2022/09/13 08:53:18;;;;;;;6.65;5.13;;;;;;;;;;5033695;28;20034;-66
2022/09/13 08:56:05;;;;;;;12.50;5.45;;;;;;;;;;5033589;28;20033;-67
2022/09/13 08:58:55;;;;;;;8.00;6.03;;;;;;;;;;5033319;28;20049;-67
2022/09/13 09:01:46;;;;;;;8.40;6.13;;;;;;;;;;5033344;28;20090;-67
2022/09/13 09:04:25;;;;;;;7.38;5.85;;;;;;;;;;5033380;28;20153;-69
2022/09/13 09:07:14;;;;;;;11.93;6.05;;;;;;;;;;5033010;28;20021;-67
2022/09/13 09:09:58;;;;;;;9.03;5.43;;;;;;;;;;5033154;28;20033;-67
2022/09/13 09:12:38;;;;;;;6.90;5.10;;;;;;;;;;5033393;28;20034;-67
2022/09/13 09:15:20;;;;;;;8.37;5.10;;;;;;;;;;5033041;28;20526;-67
2022/09/13 09:18:09;;;;;;;5.20;4.60;;;;;;;;;;5033318;28;20554;-67
2022/09/13 09:20:45;;;;;;;7.82;5.40;;;;;;;;;;5033084;28;20108;-67
2022/09/13 09:23:18;;;;;;;11.77;4.90;;;;;;;;;;5033156;28;20032;-67
2022/09/13 09:25:45;;;;;;;5.75;4.60;;;;;;;;;;5033039;28;20013;-66
2022/09/13 09:28:16;;;;;;;8.13;4.70;;;;;;;;;;5031615;28;20036;-66
2022/09/13 09:30:55;;;;;;;9.70;4.82;;;;;;;;;;5032535;28;20032;-66
2022/09/13 09:33:32;;;;;;;8.63;5.25;;;;;;;;;;5033214;28;20065;-66
2022/09/13 09:36:06;;;;;;;9.40;4.43;;;;;;;;;;5033138;28;20057;-67
2022/09/13 09:38:38;;;;;;;7.40;4.32;;;;;;;;;;5032817;28;20028;-66
2022/09/13 09:41:30;;;;;;;5.35;4.40;;;;;;;;;;5036001;28;20539;-66
2022/09/13 09:44:07;;;;;;;6.80;5.00;;;;;;;;;;5032736;28;20082;-66
2022/09/13 09:46:37;;;;;;;5.72;4.70;;;;;;;;;;5032742;28;20021;-68
2022/09/13 09:52:05;;;;;;;8.05;4.80;;;;;;;;;;5032635;28;20064;-66
2022/09/13 09:54:33;;;;;;;8.15;5.47;;;;;;;;;;5032401;28;20493;-66
2022/09/13 09:57:00;;;;;;;9.02;5.15;;;;;;;;;;5032015;28;20037;-66
2022/09/13 09:59:32;;;;;;;10.93;5.57;;;;;;;;;;5032081;28;20045;-68
2022/09/13 10:02:10;;;;;;;10.23;5.40;;;;;;;;;;5032475;28;20029;-70
2022/09/13 10:04:36;;;;;;;7.47;5.63;;;;;;;;;;5032289;28;20028;-73
2022/09/13 10:07:28;;;;;;;6.85;5.18;;;;;;;;;;5032298;28;20037;-67
2022/09/13 10:10:05;;;;;;;10.32;5.88;;;;;;;;;;5032462;28;20108;-70
2022/09/13 10:12:33;;;;;;;10.73;5.15;;;;;;;;;;5032092;28;20113;-68
2022/09/13 10:15:17;;;;;;;11.20;5.55;;;;;;;;;;5032393;28;20037;-68
2022/09/13 10:18:00;;;;;;;6.90;5.25;;;;;;;;;;5032466;28;20032;-70
2022/09/13 10:20:26;;;;;;;13.00;5.50;;;;;;;;;;5032347;28;20058;-69
2022/09/13 10:23:10;;;;;;;9.05;5.32;;;;;;;;;;5032230;28;20033;-72
2022/09/13 10:25:36;;;;;;;8.60;5.28;;;;;;;;;;5032103;28;20021;-71
2022/09/13 10:28:06;;;;;;;9.80;4.95;;;;;;;;;;5031864;28;20026;-66
2022/09/13 10:30:39;;;;;;;8.07;5.10;;;;;;;;;;5031276;28;20018;-73
2022/09/13 10:33:13;;;;;;;9.25;5.18;;;;;;;;;;5032245;28;20053;-67
2022/09/13 10:35:38;;;;;;;9.57;5.35;;;;;;;;;;5032208;28;20033;-68
2022/09/13 10:38:04;;;;;;;7.65;5.35;;;;;;;;;;5031828;28;20425;-67
2022/09/13 10:40:37;;;;;;;9.98;5.25;;;;;;;;;;5031987;28;20503;-74
2022/09/13 10:43:12;;;;;;;8.45;5.55;;;;;;;;;;5031873;28;20026;-67
2022/09/13 10:45:39;;;;;;;8.35;4.95;;;;;;;;;;5030600;28;20094;-69
2022/09/13 10:48:15;;;;;;;8.35;5.10;;;;;;;;;;5031705;28;20036;-67
2022/09/13 10:51:20;;;;;;;7.90;5.20;;;;;;;;;;5031710;28;20029;-69
2022/09/13 10:53:46;;;;;;;9.15;5.20;;;;;;;;;;5031785;28;20042;-67
2022/09/13 10:56:21;;;;;;;5.53;4.53;;;;;;;;;;5031452;28;20485;-72
2022/09/13 10:58:46;;;;;;;7.88;5.32;;;;;;;;;;5031494;28;20049;-67
2022/09/13 11:01:33;;;;;;;9.55;5.32;;;;;;;;;;5031940;28;20405;-69
2022/09/13 11:04:04;;;;;;;9.98;5.47;;;;;;;;;;5032003;28;20029;-70
2022/09/13 11:07:03;;;;;;;6.90;5.03;;;;;;;;;;5032218;28;20033;-68
2022/09/13 11:09:40;;;;;;;8.38;5.10;;;;;;;;;;5035195;28;20466;-67
2022/09/13 11:12:23;;;;;;;6.20;4.53;;;;;;;;;;5035156;28;20068;-71
2022/09/13 11:15:12;;;;;;;6.95;5.10;;;;;;;;;;5035230;28;20037;-69
2022/09/13 11:18:01;;;;;;;7.70;4.93;;;;;;;;;;5035351;28;20033;-68
2022/09/13 11:20:45;;;;;;;6.47;4.38;;;;;;;;;;5035268;28;20030;-69
2022/09/13 11:23:20;;;;;;;5.80;4.05;;;;;;;;;;5035235;28;20474;-69
2022/09/13 11:25:59;;;;;;;6.70;4.68;;;;;;;;;;5034930;28;20029;-67
2022/09/13 11:28:49;;;;;;;9.50;5.18;;;;;;;;;;5035100;28;20074;-70
2022/09/13 11:31:42;;;;;;;7.35;5.25;;;;;;;;;;5035107;28;20057;-68
2022/09/13 11:34:25;;;;;;;6.55;5.22;;;;;;;;;;5034889;28;20037;-67
2022/09/13 11:37:19;;;;;;;7.03;5.05;;;;;;;;;;5034993;28;20083;-67
2022/09/13 11:39:57;;;;;;;7.53;4.75;;;;;;;;;;4973509;28;20121;-67
2022/09/13 11:42:42;;;;;;;8.15;5.18;;;;;;;;;;4973785;28;20038;-70
2022/09/13 11:45:30;;;;;;;6.78;4.88;;;;;;;;;;4974001;28;20110;-68
2022/09/13 11:48:11;;;;;;;10.95;5.13;;;;;;;;;;4974059;28;20026;-67
2022/09/13 11:50:59;;;;;;;6.65;5.35;;;;;;;;;;4973863;28;20077;-72
2022/09/13 11:53:49;;;;;;;7.03;5.13;;;;;;;;;;4974130;28;20031;-68
2022/09/13 11:56:28;;;;;;;7.85;4.88;;;;;;;;;;4973477;28;20089;-67
2022/09/13 11:59:25;;;;;;;8.63;4.47;;;;;;;;;;4973507;28;20043;-72
2022/09/13 12:01:56;;;;;;;6.93;4.95;;;;;;;;;;4970711;28;20043;-72
2022/09/13 12:04:42;;;;;;;7.53;4.35;;;;;;;;;;4973431;28;20122;-73
2022/09/13 12:07:23;;;;;;;7.95;3.95;;;;;;;;;;4973657;28;20388;-72
2022/09/13 12:10:02;;;;;;;5.72;3.95;;;;;;;;;;4973532;28;20039;-73
2022/09/13 12:12:32;;;;;;;5.18;3.72;;;;;;;;;;4973512;28;20049;-70
2022/09/13 12:15:38;;;;;;;7.22;4.20;;;;;;;;;;4973467;28;20440;-73
2022/09/13 12:18:31;;;;;;;8.88;3.80;;;;;;;;;;5033635;28;20041;-73
2022/09/13 12:21:06;;;;;;;4.60;3.53;;;;;;;;;;5034308;28;20025;-72
2022/09/13 12:23:37;;;;;;;5.63;3.33;;;;;;;;;;5033979;28;20032;-71
2022/09/13 12:26:20;;;;;;;7.63;3.60;;;;;;;;;;5034067;28;20013;-72
2022/09/13 12:29:10;;;;;;;6.03;3.25;;;;;;;;;;5033821;28;20056;-67
2022/09/13 12:31:35;;;;;;;4.07;2.58;;;;;;;;;;5034024;28;20032;-72
2022/09/13 12:34:07;;;;;;;6.95;3.22;;;;;;;;;;5034099;28;20029;-71
2022/09/13 12:37:02;;;;;;;5.78;3.80;;;;;;;;;;5034043;28;20022;-72
2022/09/13 12:39:40;;;;;;;4.88;2.90;;;;;;;;;;4972445;28;20349;-68
2022/09/13 12:42:42;;;;;;;4.90;2.90;;;;;;;;;;4972523;28;20058;-70
2022/09/13 12:45:37;;;;;;;6.32;3.35;;;;;;;;;;4972965;28;20039;-71
2022/09/13 12:48:05;;;;;;;5.25;3.15;;;;;;;;;;4933817;29;20039;-68
2022/09/13 12:50:31;;;;;;;5.20;3.00;;;;;;;;;;4934261;29;20521;-73
2022/09/13 12:53:04;;;;;;;4.68;2.55;;;;;;;;;;4934059;29;20040;-67
2022/09/13 12:55:34;;;;;;;4.82;3.20;;;;;;;;;;4934120;29;20497;-68
2022/09/13 12:57:59;;;;;;;5.55;3.13;;;;;;;;;;4934041;29;20075;-68
2022/09/13 13:00:31;;;;;;;5.10;3.13;;;;;;;;;;4934198;29;20084;-72
2022/09/13 13:03:07;;;;;;;3.97;2.70;;;;;;;;;;4934031;29;20487;-69
2022/09/13 13:05:36;;;;;;;4.97;2.60;;;;;;;;;;4918211;29;20130;-72
2022/09/13 13:08:21;;;;;;;6.50;2.80;;;;;;;;;;4933663;29;20030;-71
2022/09/13 13:11:05;;;;;;;2.92;2.13;;;;;;;;;;4930223;29;20048;-73
2022/09/13 13:13:40;;;;;;;4.72;2.10;;;;;;;;;;4933792;29;20028;-72
2022/09/13 13:16:26;;;;;;;4.55;2.42;;;;;;;;;;4967865;28;20038;-71
2022/09/13 13:18:53;;;;;;;5.75;2.33;;;;;;;;;;4991486;28;20062;-72
2022/09/13 13:21:37;;;;;;;4.18;2.20;;;;;;;;;;4991556;28;20031;-68
2022/09/13 13:24:15;;;;;;;3.92;2.13;;;;;;;;;;5005657;28;20106;-68
2022/09/13 13:26:41;;;;;;;4.38;2.10;;;;;;;;;;5032873;28;20030;-70
2022/09/13 13:29:21;;;;;;;6.45;2.50;;;;;;;;;;5033013;28;20040;-69
2022/09/13 13:32:06;;;;;;;;;;;;;;;;;;5032001;28;20033;-72
2022/09/13 13:34:37;;;;;;;5.50;2.08;;;;;;;;;;5032959;28;20259;-70
2022/09/13 13:37:04;;;;;;;4.93;2.40;;;;;;;;;;5032603;28;20033;-72
2022/09/13 13:39:30;;;;;;;7.35;2.38;;;;;;;;;;5032445;28;20132;-69
2022/09/13 13:42:24;;;;;;;4.15;2.00;;;;;;;;;;5032771;28;20528;-68
2022/09/13 13:44:52;;;;;;;5.78;2.42;;;;;;;;;;5031122;28;20033;-73
2022/09/13 13:47:21;;;;;;;7.18;2.50;;;;;;;;;;5032754;28;20025;-68
2022/09/13 13:49:51;;;;;;;6.32;2.53;;;;;;;;;;5031384;28;20033;-69
2022/09/13 13:52:23;;;;;;;3.83;2.10;;;;;;;;;;5032248;28;20030;-72
2022/09/13 13:54:56;;;;;;;6.00;2.38;;;;;;;;;;5032382;28;20048;-73
2022/09/13 13:57:34;;;;;;;3.78;2.42;;;;;;;;;;5032643;28;20029;-71
2022/09/13 14:00:20;;;;;;;4.30;2.25;;;;;;;;;;5031097;28;20052;-69
2022/09/13 14:02:48;;;;;;;5.15;1.95;;;;;;;;;;5032234;28;20057;-68
2022/09/13 14:05:29;;;;;;;5.70;2.40;;;;;;;;;;5032069;28;20025;-69
2022/09/13 14:08:27;;;;;;;4.38;2.28;;;;;;;;;;5032450;28;20029;-69
2022/09/13 14:11:14;;;;;;;9.82;2.63;;;;;;;;;;5032209;28;20064;-69
2022/09/13 14:14:12;;;;;;;4.40;2.63;;;;;;;;;;5031882;28;20033;-69
2022/09/13 14:16:59;;;;;;;3.33;1.80;;;;;;;;;;5032283;28;20467;-72
2022/09/13 14:19:41;;;;;;;4.00;1.85;;;;;;;;;;5032641;28;20394;-72
2022/09/13 14:22:20;;;;;;;5.57;2.03;;;;;;;;;;5032168;28;20021;-68
2022/09/13 14:24:47;;;;;;;3.38;1.90;;;;;;;;;;5032305;28;20470;-67
2022/09/13 14:27:16;;;;;;;5.40;2.13;;;;;;;;;;5032121;28;20037;-70
2022/09/13 14:29:51;;;;;;;3.90;2.28;;;;;;;;;;5032199;28;20038;-70
2022/09/13 14:32:20;;;;;;;5.20;2.40;;;;;;;;;;5032103;28;20471;-67
2022/09/13 14:35:00;;;;;;;6.15;2.30;;;;;;;;;;5031585;28;20021;-68
2022/09/13 14:37:38;;;;;;;3.63;2.22;;;;;;;;;;5032322;28;20123;-66
2022/09/13 14:40:20;;;;;;;3.78;1.90;;;;;;;;;;5031899;28;20049;-69
2022/09/13 14:42:47;;;;;;;7.35;2.20;;;;;;;;;;5034672;28;20029;-71
2022/09/13 14:45:24;;;;;;;4.15;2.10;;;;;;;;;;5036043;28;20026;-68
2022/09/13 14:48:06;;;;;;;6.00;2.50;;;;;;;;;;5036026;28;20030;-68
2022/09/13 14:51:01;;;;;;;8.40;2.40;;;;;;;;;;5035899;28;20025;-67
2022/09/13 14:53:30;;;;;;;4.30;2.45;;;;;;;;;;5030996;28;20045;-68
2022/09/13 14:56:02;;;;;;;3.90;2.10;;;;;;;;;;5035732;28;20022;-68
2022/09/13 14:58:36;;;;;;;6.63;2.50;;;;;;;;;;5035643;28;20072;-69
2022/09/13 15:01:06;;;;;;;7.30;2.50;;;;;;;;;;5035702;28;20033;-72
2022/09/13 15:03:31;;;;;;;5.18;2.33;;;;;;;;;;5035545;28;20033;-69
2022/09/13 15:06:00;;;;;;;3.85;2.40;;;;;;;;;;5035659;28;20079;-71
2022/09/13 15:08:31;;;;;;;6.68;2.80;;;;;;;;;;5035460;28;20464;-69
2022/09/13 15:10:59;;;;;;;8.55;2.55;;;;;;;;;;5035360;28;20068;-67
2022/09/13 15:13:25;;;;;;;6.00;2.35;;;;;;;;;;5035556;28;20030;-67
2022/09/13 15:15:50;;;;;;;4.57;2.65;;;;;;;;;;5035302;28;20386;-72
2022/09/13 15:18:19;;;;;;;8.43;2.20;;;;;;;;;;5035114;28;20053;-67
2022/09/13 15:20:47;;;;;;;5.40;2.30;;;;;;;;;;5035309;28;20087;-71
2022/09/13 15:23:33;;;;;;;7.80;2.65;;;;;;;;;;5035364;28;20036;-67